createdAt,value
2018-12-10T00:00:07.862Z,85.40
2018-12-10T00:01:10.909Z,85.30
2018-12-10T00:02:05.910Z,85.20
2018-12-10T00:03:07.508Z,84.80
2018-12-10T00:04:05.522Z,84.80
2018-12-10T00:05:05.674Z,84.80
2018-12-10T00:06:05.773Z,84.60
2018-12-10T00:07:06.031Z,84.30
2018-12-10T00:08:05.228Z,84.30
2018-12-10T00:09:05.376Z,84.30
2018-12-10T00:10:08.058Z,84.20
2018-12-10T00:11:05.084Z,84.20
2018-12-10T00:12:07.639Z,83.90
2018-12-10T00:13:08.148Z,83.80
2018-12-10T00:14:05.190Z,83.80
2018-12-10T00:15:07.879Z,83.30
2018-12-10T00:16:08.405Z,83.20
2018-12-10T00:17:05.426Z,83.20
2018-12-10T00:18:05.565Z,83.10
2018-12-10T00:19:05.691Z,82.90
2018-12-10T00:20:05.815Z,83.00
2018-12-10T00:21:05.899Z,82.80
2018-12-10T00:22:07.658Z,82.40
2018-12-10T00:23:05.656Z,82.40
2018-12-10T00:24:05.842Z,82.20
2018-12-10T00:25:05.041Z,82.10
2018-12-10T00:26:05.191Z,82.20
2018-12-10T00:27:07.976Z,82.20
2018-12-10T00:28:08.559Z,82.30
2018-12-10T00:29:05.542Z,82.40
2018-12-10T00:30:05.661Z,82.10
2018-12-10T00:31:05.797Z,82.20
2018-12-10T00:32:05.953Z,82.20
2018-12-10T00:33:05.068Z,82.20
2018-12-10T00:34:07.674Z,82.20
2018-12-10T00:35:08.187Z,82.20
2018-12-10T00:36:05.193Z,82.20
2018-12-10T00:37:07.850Z,82.20
2018-12-10T00:38:05.879Z,82.20
2018-12-10T00:39:07.634Z,82.30
2018-12-10T00:40:06.015Z,82.30
2018-12-10T00:41:05.117Z,82.30
2018-12-10T00:42:05.238Z,82.40
2018-12-10T00:43:07.884Z,82.60
2018-12-10T00:44:08.415Z,82.80
2018-12-10T00:45:05.446Z,82.80
2018-12-10T00:46:05.548Z,82.90
2018-12-10T00:47:05.765Z,83.10
2018-12-10T00:48:06.003Z,83.20
2018-12-10T00:49:05.156Z,83.30
2018-12-10T00:50:05.440Z,83.50
2018-12-10T00:51:05.611Z,83.40
2018-12-10T00:52:08.195Z,83.70
2018-12-10T00:53:07.690Z,83.90
2018-12-10T00:54:08.189Z,84.00
2018-12-10T00:55:05.195Z,84.00
2018-12-10T00:56:05.347Z,84.10
2018-12-10T00:57:08.015Z,84.30
2018-12-10T00:58:05.049Z,84.20
2018-12-10T00:59:07.656Z,84.40
2018-12-10T01:00:05.733Z,84.50
2018-12-10T01:01:05.925Z,84.50
2018-12-10T01:02:07.683Z,84.80
2018-12-10T01:03:05.796Z,84.80
2018-12-10T01:04:05.056Z,84.80
2018-12-10T01:05:05.315Z,85.00
2018-12-10T01:06:05.449Z,85.00
2018-12-10T01:07:08.135Z,85.20
2018-12-10T01:08:05.262Z,85.20
2018-12-10T01:09:05.396Z,85.30
2018-12-10T01:10:05.505Z,85.30
2018-12-10T01:11:05.706Z,85.30
2018-12-10T01:12:05.961Z,85.50
2018-12-10T01:13:05.111Z,85.50
2018-12-10T01:14:05.339Z,85.60
2018-12-10T01:15:07.943Z,85.60
2018-12-10T01:16:05.984Z,85.60
2018-12-10T01:17:05.110Z,85.60
2018-12-10T01:18:12.954Z,85.70
2018-12-10T01:19:05.959Z,85.70
2018-12-10T01:20:07.609Z,85.70
2018-12-10T01:21:05.611Z,85.70
2018-12-10T01:22:05.712Z,85.80
2018-12-10T01:23:05.908Z,85.80
2018-12-10T01:24:05.175Z,85.80
2018-12-10T01:25:07.876Z,85.80
2018-12-10T01:26:05.950Z,85.70
2018-12-10T01:27:07.646Z,85.70
2018-12-10T01:28:05.672Z,85.70
2018-12-10T01:29:07.747Z,85.80
2018-12-10T01:30:05.791Z,85.80
2018-12-10T01:31:05.914Z,85.80
2018-12-10T01:32:05.030Z,85.80
2018-12-10T01:33:05.159Z,85.80
2018-12-10T01:34:05.274Z,85.80
2018-12-10T01:35:08.018Z,86.00
2018-12-10T01:36:04.971Z,85.80
2018-12-10T01:37:05.257Z,85.80
2018-12-10T01:38:05.495Z,85.80
2018-12-10T01:39:05.698Z,85.90
2018-12-10T01:40:05.992Z,85.90
2018-12-10T01:41:05.223Z,86.00
2018-12-10T01:42:05.662Z,86.00
2018-12-10T01:43:05.812Z,86.00
2018-12-10T01:44:05.901Z,86.10
2018-12-10T01:45:11.111Z,86.10
2018-12-10T01:46:05.030Z,86.10
2018-12-10T01:47:07.622Z,86.10
2018-12-10T01:48:08.212Z,86.10
2018-12-10T01:49:05.328Z,86.10
2018-12-10T01:50:07.987Z,86.10
2018-12-10T01:51:05.908Z,86.10
2018-12-10T01:52:04.989Z,86.10
2018-12-10T01:53:05.079Z,86.10
2018-12-10T01:54:05.146Z,86.20
2018-12-10T01:55:05.369Z,86.20
2018-12-10T01:56:05.586Z,86.20
2018-12-10T01:57:05.682Z,86.20
2018-12-10T01:58:05.776Z,86.20
2018-12-10T01:59:05.871Z,86.20
2018-12-10T02:00:05.952Z,86.20
2018-12-10T02:01:05.023Z,86.20
2018-12-10T02:02:05.108Z,86.30
2018-12-10T02:03:05.183Z,86.30
2018-12-10T02:04:07.759Z,86.40
2018-12-10T02:05:05.834Z,86.30
2018-12-10T02:06:08.557Z,86.40
2018-12-10T02:07:05.563Z,86.40
2018-12-10T02:08:05.054Z,86.50
2018-12-10T02:09:05.274Z,86.40
2018-12-10T02:10:05.389Z,86.40
2018-12-10T02:11:05.528Z,86.60
2018-12-10T02:12:08.220Z,86.60
2018-12-10T02:13:05.172Z,86.60
2018-12-10T02:14:05.245Z,86.60
2018-12-10T02:15:05.300Z,86.60
2018-12-10T02:16:07.879Z,86.70
2018-12-10T02:17:05.939Z,86.70
2018-12-10T02:18:05.039Z,86.60
2018-12-10T02:19:05.078Z,86.60
2018-12-10T02:20:05.185Z,86.70
2018-12-10T02:21:07.734Z,86.70
2018-12-10T02:22:08.288Z,86.70
2018-12-10T02:23:05.232Z,86.70
2018-12-10T02:24:07.835Z,87.00
2018-12-10T02:25:08.462Z,86.80
2018-12-10T02:26:07.955Z,86.70
2018-12-10T02:27:05.884Z,86.80
2018-12-10T02:28:05.896Z,86.80
2018-12-10T02:29:05.465Z,86.90
2018-12-10T02:30:08.179Z,87.10
2018-12-10T02:31:07.789Z,87.10
2018-12-10T02:32:05.753Z,87.10
2018-12-10T02:33:05.925Z,87.10
2018-12-10T02:34:05.245Z,87.20
2018-12-10T02:35:07.884Z,87.30
2018-12-10T02:36:11.024Z,87.40
2018-12-10T02:37:07.631Z,87.40
2018-12-10T02:38:05.714Z,87.40
2018-12-10T02:39:05.827Z,87.50
2018-12-10T02:40:08.643Z,87.60
2018-12-10T02:41:08.142Z,87.50
2018-12-10T02:42:05.262Z,87.60
2018-12-10T02:43:05.390Z,87.50
2018-12-10T02:44:05.486Z,87.60
2018-12-10T02:45:05.614Z,87.60
2018-12-10T02:46:05.906Z,87.70
2018-12-10T02:47:05.041Z,87.50
2018-12-10T02:48:07.778Z,87.80
2018-12-10T02:49:08.334Z,87.80
2018-12-10T02:50:05.254Z,87.80
2018-12-10T02:51:05.333Z,87.90
2018-12-10T02:52:05.397Z,87.70
2018-12-10T02:53:05.554Z,87.70
2018-12-10T02:54:05.639Z,87.70
2018-12-10T02:55:05.733Z,87.90
2018-12-10T02:56:05.801Z,87.90
2018-12-10T02:57:05.854Z,87.90
2018-12-10T02:58:08.470Z,87.90
2018-12-10T02:59:05.471Z,88.00
2018-12-10T03:00:05.668Z,88.00
2018-12-10T03:01:08.353Z,88.00
2018-12-10T03:02:07.995Z,88.00
2018-12-10T03:03:06.117Z,88.00
2018-12-10T03:04:05.168Z,88.00
2018-12-10T03:05:05.224Z,88.00
2018-12-10T03:06:05.317Z,88.00
2018-12-10T03:07:08.006Z,88.00
2018-12-10T03:08:05.103Z,88.00
2018-12-10T03:09:10.280Z,88.00
2018-12-10T03:10:07.744Z,87.90
2018-12-10T03:11:05.651Z,87.90
2018-12-10T03:12:08.399Z,87.80
2018-12-10T03:13:05.353Z,87.80
2018-12-10T03:14:07.989Z,87.80
2018-12-10T03:15:05.976Z,87.80
2018-12-10T03:16:05.083Z,87.80
2018-12-10T03:17:05.312Z,87.70
2018-12-10T03:18:07.916Z,87.60
2018-12-10T03:19:05.835Z,87.60
2018-12-10T03:20:05.966Z,87.70
2018-12-10T03:21:07.725Z,87.60
2018-12-10T03:22:08.268Z,87.60
2018-12-10T03:23:05.219Z,87.60
2018-12-10T03:24:05.314Z,87.60
2018-12-10T03:25:07.988Z,87.60
2018-12-10T03:26:08.564Z,87.60
2018-12-10T03:27:05.650Z,87.60
2018-12-10T03:28:05.803Z,87.50
2018-12-10T03:29:05.494Z,87.40
2018-12-10T03:30:05.614Z,87.50
2018-12-10T03:31:05.771Z,87.50
2018-12-10T03:32:05.908Z,87.40
2018-12-10T03:33:05.046Z,87.40
2018-12-10T03:34:05.107Z,87.30
2018-12-10T03:35:05.149Z,87.30
2018-12-10T03:36:07.769Z,87.20
2018-12-10T03:37:05.774Z,87.30
2018-12-10T03:38:08.486Z,87.20
2018-12-10T03:39:10.471Z,87.10
2018-12-10T03:40:05.483Z,87.10
2018-12-10T03:41:05.570Z,87.10
2018-12-10T03:42:05.669Z,87.10
2018-12-10T03:43:08.384Z,87.10
2018-12-10T03:44:05.411Z,87.10
2018-12-10T03:45:05.441Z,87.10
2018-12-10T03:46:08.064Z,86.90
2018-12-10T03:47:07.533Z,86.90
2018-12-10T03:48:05.551Z,86.90
2018-12-10T03:49:05.658Z,86.90
2018-12-10T03:50:05.187Z,86.80
2018-12-10T03:51:07.811Z,86.80
2018-12-10T03:52:08.243Z,86.70
2018-12-10T03:53:07.679Z,86.60
2018-12-10T03:54:05.603Z,86.60
2018-12-10T03:55:05.871Z,86.70
2018-12-10T03:56:05.052Z,86.70
2018-12-10T03:57:05.118Z,86.60
2018-12-10T03:58:05.288Z,86.60
2018-12-10T03:59:05.365Z,86.50
2018-12-10T04:00:05.447Z,86.50
2018-12-10T04:01:08.061Z,86.50
2018-12-10T04:02:05.001Z,86.50
2018-12-10T04:03:05.038Z,86.50
2018-12-10T04:04:05.203Z,86.50
2018-12-10T04:05:05.349Z,86.50
2018-12-10T04:06:05.461Z,86.40
2018-12-10T04:07:05.675Z,86.40
2018-12-10T04:08:08.422Z,86.20
2018-12-10T04:09:07.893Z,86.20
2018-12-10T04:10:05.932Z,86.20
2018-12-10T04:11:07.652Z,86.10
2018-12-10T04:12:05.626Z,86.10
2018-12-10T04:13:05.822Z,86.10
2018-12-10T04:14:05.912Z,86.10
2018-12-10T04:15:05.066Z,86.10
2018-12-10T04:16:07.801Z,86.10
2018-12-10T04:17:06.081Z,86.10
2018-12-10T04:18:05.217Z,86.10
2018-12-10T04:19:05.295Z,86.10
2018-12-10T04:20:08.030Z,86.00
2018-12-10T04:21:07.489Z,86.10
2018-12-10T04:22:05.539Z,86.00
2018-12-10T04:23:05.652Z,85.90
2018-12-10T04:24:05.691Z,85.90
2018-12-10T04:25:05.760Z,85.90
2018-12-10T04:26:05.889Z,85.80
2018-12-10T04:27:05.998Z,85.80
2018-12-10T04:28:05.099Z,85.80
2018-12-10T04:29:08.346Z,85.80
2018-12-10T04:30:05.342Z,85.90
2018-12-10T04:31:05.451Z,85.90
2018-12-10T04:32:10.713Z,85.80
2018-12-10T04:33:08.401Z,85.80
2018-12-10T04:34:05.442Z,85.90
2018-12-10T04:35:05.506Z,85.80
2018-12-10T04:36:05.678Z,86.00
2018-12-10T04:37:05.842Z,85.90
2018-12-10T04:38:08.401Z,86.00
2018-12-10T04:39:05.469Z,86.00
2018-12-10T04:40:08.067Z,86.10
2018-12-10T04:41:05.069Z,86.10
2018-12-10T04:42:05.141Z,86.30
2018-12-10T04:43:05.212Z,86.20
2018-12-10T04:44:05.358Z,86.30
2018-12-10T04:45:07.941Z,86.20
2018-12-10T04:46:05.926Z,86.20
2018-12-10T04:47:07.581Z,86.20
2018-12-10T04:48:05.578Z,86.20
2018-12-10T04:49:05.821Z,86.30
2018-12-10T04:50:08.470Z,86.10
2018-12-10T04:51:05.553Z,86.10
2018-12-10T04:52:05.790Z,86.10
2018-12-10T04:53:06.102Z,86.20
2018-12-10T04:54:05.308Z,86.10
2018-12-10T04:55:07.896Z,86.10
2018-12-10T04:56:06.005Z,86.10
2018-12-10T04:57:05.217Z,86.10
2018-12-10T04:58:05.356Z,86.00
2018-12-10T04:59:05.533Z,86.10
2018-12-10T05:00:08.927Z,86.10
2018-12-10T05:01:05.808Z,86.10
2018-12-10T05:02:08.365Z,85.90
2018-12-10T05:03:05.446Z,85.80
2018-12-10T05:04:05.609Z,85.90
2018-12-10T05:05:05.778Z,85.80
2018-12-10T05:06:08.466Z,85.70
2018-12-10T05:07:05.606Z,85.70
2018-12-10T05:08:05.917Z,85.70
2018-12-10T05:09:05.017Z,85.70
2018-12-10T05:10:05.170Z,85.70
2018-12-10T05:11:08.020Z,85.60
2018-12-10T05:12:05.010Z,85.60
2018-12-10T05:13:05.081Z,85.70
2018-12-10T05:14:10.260Z,85.60
2018-12-10T05:15:05.269Z,85.60
2018-12-10T05:16:05.426Z,85.50
2018-12-10T05:17:08.523Z,85.40
2018-12-10T05:18:08.386Z,85.30
2018-12-10T05:19:05.389Z,85.30
2018-12-10T05:20:08.037Z,85.20
2018-12-10T05:21:06.058Z,85.20
2018-12-10T05:22:07.666Z,85.10
2018-12-10T05:23:10.748Z,85.10
2018-12-10T05:24:08.194Z,85.00
2018-12-10T05:25:08.085Z,84.70
2018-12-10T05:26:05.154Z,84.60
2018-12-10T05:27:05.375Z,84.60
2018-12-10T05:28:05.603Z,84.50
2018-12-10T05:29:10.248Z,84.40
2018-12-10T05:30:07.720Z,84.50
2018-12-10T05:31:05.692Z,84.50
2018-12-10T05:32:08.232Z,84.60
2018-12-10T05:33:05.164Z,84.50
2018-12-10T05:34:07.846Z,84.60
2018-12-10T05:35:05.882Z,84.60
2018-12-10T05:36:06.094Z,84.60
2018-12-10T05:37:07.809Z,84.60
2018-12-10T05:38:08.306Z,84.60
2018-12-10T05:39:05.373Z,84.60
2018-12-10T05:40:08.005Z,84.70
2018-12-10T05:41:08.463Z,84.70
2018-12-10T05:42:05.410Z,84.70
2018-12-10T05:43:05.540Z,84.60
2018-12-10T05:44:05.776Z,84.60
2018-12-10T05:45:06.341Z,84.60
2018-12-10T05:46:07.926Z,84.70
2018-12-10T05:47:10.860Z,84.60
2018-12-10T05:48:05.811Z,84.60
2018-12-10T05:49:05.271Z,84.60
2018-12-10T05:50:07.956Z,84.50
2018-12-10T05:51:08.498Z,84.50
2018-12-10T05:52:08.107Z,84.50
2018-12-10T05:53:05.089Z,84.50
2018-12-10T05:54:05.184Z,84.50
2018-12-10T05:55:07.775Z,84.40
2018-12-10T05:56:05.852Z,84.40
2018-12-10T05:57:06.037Z,84.40
2018-12-10T05:58:05.108Z,84.30
2018-12-10T05:59:05.129Z,84.10
2018-12-10T06:00:05.155Z,84.10
2018-12-10T06:01:05.179Z,84.10
2018-12-10T06:02:05.376Z,84.10
2018-12-10T06:03:05.601Z,84.00
2018-12-10T06:04:05.788Z,83.90
2018-12-10T06:05:05.900Z,83.90
2018-12-10T06:06:05.034Z,83.90
2018-12-10T06:07:05.045Z,83.90
2018-12-10T06:08:07.756Z,83.80
2018-12-10T06:09:05.774Z,83.70
2018-12-10T06:10:05.930Z,83.60
2018-12-10T06:11:05.001Z,83.50
2018-12-10T06:12:05.238Z,83.40
2018-12-10T06:13:05.358Z,83.50
2018-12-10T06:14:10.575Z,83.50
2018-12-10T06:15:08.276Z,83.40
2018-12-10T06:16:05.211Z,83.40
2018-12-10T06:17:05.294Z,83.40
2018-12-10T06:18:05.368Z,83.40
2018-12-10T06:19:07.940Z,83.50
2018-12-10T06:20:05.898Z,83.40
2018-12-10T06:21:05.999Z,83.30
2018-12-10T06:22:05.384Z,83.30
2018-12-10T06:23:08.104Z,83.30
2018-12-10T06:24:05.061Z,83.30
2018-12-10T06:25:05.286Z,83.30
2018-12-10T06:26:05.404Z,83.30
2018-12-10T06:27:05.464Z,83.30
2018-12-10T06:28:08.084Z,83.40
2018-12-10T06:29:07.650Z,83.40
2018-12-10T06:30:10.670Z,83.50
2018-12-10T06:31:05.578Z,77.10
2018-12-10T06:32:05.796Z,83.50
2018-12-10T06:33:08.424Z,83.50
2018-12-10T06:34:05.557Z,83.60
2018-12-10T06:35:05.712Z,83.50
2018-12-10T06:36:05.746Z,83.60
2018-12-10T06:37:05.807Z,83.50
2018-12-10T06:38:05.850Z,83.60
2018-12-10T06:39:05.982Z,83.50
2018-12-10T06:40:07.702Z,83.50
2018-12-10T06:41:05.619Z,83.50
2018-12-10T06:42:05.858Z,83.50
2018-12-10T06:43:05.148Z,83.50
2018-12-10T06:44:05.344Z,83.60
2018-12-10T06:45:08.103Z,83.60
2018-12-10T06:46:07.529Z,83.60
2018-12-10T06:47:07.956Z,83.60
2018-12-10T06:48:08.513Z,83.70
2018-12-10T06:49:05.509Z,83.60
2018-12-10T06:50:05.553Z,83.50
2018-12-10T06:51:05.635Z,83.40
2018-12-10T06:52:05.770Z,83.40
2018-12-10T06:53:05.849Z,83.50
2018-12-10T06:54:08.553Z,83.60
2018-12-10T06:55:05.597Z,83.50
2018-12-10T06:56:05.678Z,83.60
2018-12-10T06:57:05.710Z,83.60
2018-12-10T06:58:08.419Z,83.50
2018-12-10T06:59:05.406Z,83.50
2018-12-10T07:00:05.544Z,83.50
2018-12-10T07:01:05.189Z,83.50
2018-12-10T07:02:05.342Z,83.50
2018-12-10T07:03:10.625Z,83.50
2018-12-10T07:04:05.689Z,83.50
2018-12-10T07:05:08.277Z,83.60
2018-12-10T07:06:07.726Z,83.60
2018-12-10T07:07:08.611Z,83.60
2018-12-10T07:08:05.631Z,83.60
2018-12-10T07:09:05.940Z,83.50
2018-12-10T07:10:05.219Z,83.50
2018-12-10T07:11:08.057Z,83.60
2018-12-10T07:12:05.084Z,83.60
2018-12-10T07:13:05.173Z,83.60
2018-12-10T07:14:05.284Z,83.60
2018-12-10T07:15:10.490Z,83.70
2018-12-10T07:16:05.505Z,83.70
2018-12-10T07:17:05.664Z,83.80
2018-12-10T07:18:05.858Z,83.90
2018-12-10T07:19:05.963Z,84.00
2018-12-10T07:20:07.651Z,84.20
2018-12-10T07:21:08.273Z,84.40
2018-12-10T07:22:07.145Z,84.40
2018-12-10T07:23:05.289Z,84.50
2018-12-10T07:24:05.406Z,84.60
2018-12-10T07:25:05.472Z,84.90
2018-12-10T07:26:10.574Z,85.00
2018-12-10T07:27:05.825Z,85.00
2018-12-10T07:28:05.931Z,85.00
2018-12-10T07:29:10.080Z,85.20
2018-12-10T07:30:05.203Z,85.20
2018-12-10T07:31:07.832Z,85.30
2018-12-10T07:32:05.859Z,85.20
2018-12-10T07:33:05.977Z,85.30
2018-12-10T07:34:10.159Z,85.50
2018-12-10T07:35:07.664Z,85.50
2018-12-10T07:36:08.117Z,85.40
2018-12-10T07:37:07.800Z,85.50
2018-12-10T07:38:08.371Z,85.50
2018-12-10T07:39:07.853Z,85.50
2018-12-10T07:40:07.088Z,85.50
2018-12-10T07:41:05.346Z,85.70
2018-12-10T07:42:05.482Z,85.70
2018-12-10T07:43:05.749Z,85.70
2018-12-10T07:44:05.898Z,85.80
2018-12-10T07:45:07.490Z,85.90
2018-12-10T07:46:05.488Z,86.00
2018-12-10T07:47:08.162Z,86.00
2018-12-10T07:48:07.726Z,86.10
2018-12-10T07:49:05.698Z,86.20
2018-12-10T07:50:05.854Z,86.40
2018-12-10T07:51:07.511Z,86.40
2018-12-10T07:52:08.005Z,86.30
2018-12-10T07:53:08.939Z,86.40
2018-12-10T07:54:05.332Z,86.40
2018-12-10T07:55:05.674Z,86.30
2018-12-10T07:56:05.843Z,86.40
2018-12-10T07:57:05.974Z,86.40
2018-12-10T07:58:08.084Z,86.40
2018-12-10T07:59:05.084Z,86.40
2018-12-10T08:00:05.219Z,86.40
2018-12-10T08:01:05.348Z,86.40
2018-12-10T08:02:05.442Z,86.40
2018-12-10T08:03:05.569Z,86.40
2018-12-10T08:04:05.692Z,86.50
2018-12-10T08:05:12.793Z,86.50
2018-12-10T08:06:06.096Z,86.40
2018-12-10T08:07:07.830Z,86.40
2018-12-10T08:08:08.314Z,86.50
2018-12-10T08:09:05.395Z,86.50
2018-12-10T08:10:08.148Z,86.60
2018-12-10T08:11:10.218Z,86.30
2018-12-10T08:12:10.393Z,86.20
2018-12-10T08:13:05.395Z,86.10
2018-12-10T08:14:05.735Z,86.20
2018-12-10T08:15:08.365Z,86.20
2018-12-10T08:16:05.404Z,86.20
2018-12-10T08:17:05.548Z,86.20
2018-12-10T08:18:05.716Z,86.00
2018-12-10T08:19:05.850Z,86.10
2018-12-10T08:20:08.431Z,86.10
2018-12-10T08:21:07.940Z,86.10
2018-12-10T08:22:08.428Z,86.00
2018-12-10T08:23:05.370Z,86.10
2018-12-10T08:24:08.083Z,86.00
2018-12-10T08:25:05.136Z,85.90
2018-12-10T08:26:06.012Z,86.00
2018-12-10T08:28:05.989Z,86.00
2018-12-10T08:28:21.552Z,86.00
2018-12-10T08:29:07.939Z,86.00
2018-12-10T08:30:06.067Z,86.00
2018-12-10T08:31:05.252Z,86.00
2018-12-10T08:32:08.223Z,86.00
2018-12-10T08:33:07.655Z,86.00
2018-12-10T08:34:05.690Z,86.00
2018-12-10T08:35:05.930Z,85.90
2018-12-10T08:36:10.031Z,85.70
2018-12-10T08:37:05.055Z,85.70
2018-12-10T08:38:07.786Z,85.50
2018-12-10T08:39:08.494Z,85.50
2018-12-10T08:40:05.531Z,85.50
2018-12-10T08:41:08.047Z,85.40
2018-12-10T08:42:05.136Z,85.40
2018-12-10T08:43:05.279Z,85.30
2018-12-10T08:44:08.021Z,85.30
2018-12-10T08:45:05.006Z,85.30
2018-12-10T08:46:05.154Z,85.30
2018-12-10T08:47:05.196Z,85.20
2018-12-10T08:48:05.308Z,85.30
2018-12-10T08:49:08.053Z,85.10
2018-12-10T08:50:05.034Z,85.10
2018-12-10T08:51:05.236Z,85.10
2018-12-10T08:52:05.364Z,84.90
2018-12-10T08:53:07.923Z,84.80
2018-12-10T08:54:05.967Z,84.80
2018-12-10T08:55:07.719Z,84.90
2018-12-10T08:56:05.630Z,84.70
2018-12-10T08:57:05.910Z,84.70
2018-12-10T08:58:05.007Z,84.90
2018-12-10T08:59:05.116Z,84.80
2018-12-10T09:00:05.219Z,84.90
2018-12-10T09:01:10.355Z,84.90
2018-12-10T09:02:07.801Z,84.90
2018-12-10T09:03:05.964Z,84.90
2018-12-10T09:04:05.133Z,84.80
2018-12-10T09:05:05.255Z,84.80
2018-12-10T09:06:05.277Z,84.70
2018-12-10T09:07:07.867Z,84.60
2018-12-10T09:08:08.283Z,84.50
2018-12-10T09:09:07.708Z,84.50
2018-12-10T09:10:10.830Z,84.40
2018-12-10T09:11:05.813Z,84.40
2018-12-10T09:12:08.523Z,84.30
2018-12-10T09:13:05.573Z,84.30
2018-12-10T09:14:05.525Z,84.30
2018-12-10T09:15:05.601Z,84.40
2018-12-10T09:16:05.737Z,84.40
2018-12-10T09:17:05.821Z,84.50
2018-12-10T09:18:06.012Z,84.60
2018-12-10T09:19:05.063Z,84.60
2018-12-10T09:20:05.127Z,84.80
2018-12-10T09:21:07.808Z,85.00
2018-12-10T09:22:08.316Z,85.10
2018-12-10T09:23:05.273Z,85.10
2018-12-10T09:24:05.550Z,85.00
2018-12-10T09:25:05.828Z,85.00
2018-12-10T09:26:06.012Z,85.00
2018-12-10T09:27:05.257Z,85.10
2018-12-10T09:28:07.933Z,85.10
2018-12-10T09:29:05.873Z,85.10
2018-12-10T09:30:05.100Z,85.10
2018-12-10T09:31:05.319Z,85.10
2018-12-10T09:32:05.432Z,85.10
2018-12-10T09:33:08.194Z,85.20
2018-12-10T09:34:07.727Z,85.10
2018-12-10T09:35:05.766Z,85.10
2018-12-10T09:36:10.958Z,85.00
2018-12-10T09:37:07.638Z,84.90
2018-12-10T09:38:08.194Z,84.80
2018-12-10T09:39:07.788Z,84.80
2018-12-10T09:40:08.310Z,84.70
2018-12-10T09:41:05.348Z,84.70
2018-12-10T09:42:05.529Z,84.30
2018-12-10T09:43:08.264Z,84.10
2018-12-10T09:44:07.762Z,84.10
2018-12-10T09:45:05.758Z,84.10
2018-12-10T09:46:08.557Z,83.90
2018-12-10T09:47:08.090Z,83.90
2018-12-10T09:48:05.103Z,84.00
2018-12-10T09:49:05.157Z,84.00
2018-12-10T09:50:07.934Z,83.90
2018-12-10T09:51:08.502Z,84.00
2018-12-10T09:52:08.026Z,83.90
2018-12-10T09:53:05.038Z,83.90
2018-12-10T09:54:05.147Z,83.90
2018-12-10T09:55:05.513Z,83.70
2018-12-10T09:56:05.643Z,83.40
2018-12-10T09:57:08.446Z,83.40
2018-12-10T09:58:08.072Z,83.30
2018-12-10T09:59:05.032Z,83.30
2018-12-10T10:00:05.147Z,83.30
2018-12-10T10:01:05.252Z,83.50
2018-12-10T10:02:12.696Z,83.60
2018-12-10T10:03:08.360Z,83.70
2018-12-10T10:04:05.320Z,83.70
2018-12-10T10:05:05.543Z,83.60
2018-12-10T10:06:05.677Z,83.60
2018-12-10T10:07:08.335Z,83.30
2018-12-10T10:08:05.333Z,83.30
2018-12-10T10:09:05.485Z,83.10
2018-12-10T10:10:05.794Z,83.10
2018-12-10T10:11:08.414Z,83.20
2018-12-10T10:12:05.430Z,83.20
2018-12-10T10:13:05.565Z,83.10
2018-12-10T10:14:05.680Z,83.00
2018-12-10T10:15:05.820Z,82.20
2018-12-10T10:16:08.564Z,82.00
2018-12-10T10:17:05.587Z,82.00
2018-12-10T10:18:05.697Z,82.20
2018-12-10T10:19:05.866Z,82.40
2018-12-10T10:20:07.506Z,82.20
2018-12-10T10:21:11.922Z,82.10
2018-12-10T10:22:08.571Z,82.00
2018-12-10T10:23:10.625Z,81.90
2018-12-10T10:24:05.740Z,81.90
2018-12-10T10:25:11.057Z,81.80
2018-12-10T10:26:07.765Z,81.80
2018-12-10T10:27:05.701Z,81.80
2018-12-10T10:28:05.888Z,81.80
2018-12-10T10:29:05.306Z,81.50
2018-12-10T10:30:05.478Z,81.30
2018-12-10T10:31:08.167Z,81.30
2018-12-10T10:32:07.626Z,81.30
2018-12-10T10:33:08.065Z,81.20
2018-12-10T10:34:05.065Z,81.20
2018-12-10T10:35:05.330Z,81.10
2018-12-10T10:36:05.488Z,80.70
2018-12-10T10:37:05.643Z,80.60
2018-12-10T10:38:05.795Z,80.40
2018-12-10T10:39:06.014Z,80.30
2018-12-10T10:40:05.223Z,80.20
2018-12-10T10:41:05.461Z,80.20
2018-12-10T10:42:05.675Z,80.30
2018-12-10T10:43:05.835Z,80.30
2018-12-10T10:44:05.991Z,80.40
2018-12-10T10:45:05.269Z,80.60
2018-12-10T10:46:05.585Z,80.70
2018-12-10T10:47:05.868Z,80.80
2018-12-10T10:48:05.045Z,80.90
2018-12-10T10:49:05.171Z,80.70
2018-12-10T10:50:05.314Z,80.40
2018-12-10T10:51:05.384Z,80.30
2018-12-10T10:52:05.766Z,80.20
2018-12-10T10:53:05.985Z,80.00
2018-12-10T10:54:05.218Z,79.90
2018-12-10T10:55:05.417Z,79.90
2018-12-10T10:56:08.126Z,79.60
2018-12-10T10:57:05.133Z,79.50
2018-12-10T10:58:07.764Z,79.40
2018-12-10T10:59:05.737Z,79.50
2018-12-10T11:00:05.885Z,79.50
2018-12-10T11:01:05.000Z,79.50
2018-12-10T11:02:05.084Z,79.50
2018-12-10T11:03:07.731Z,79.40
2018-12-10T11:04:05.805Z,79.40
2018-12-10T11:05:06.097Z,79.30
2018-12-10T11:06:05.183Z,79.40
2018-12-10T11:07:05.257Z,79.40
2018-12-10T11:08:07.890Z,79.20
2018-12-10T11:09:05.944Z,79.20
2018-12-10T11:10:05.105Z,79.10
2018-12-10T11:11:07.859Z,79.00
2018-12-10T11:12:05.839Z,78.80
2018-12-10T11:13:08.502Z,78.40
2018-12-10T11:14:05.538Z,78.40
2018-12-10T11:15:10.738Z,78.50
2018-12-10T11:16:05.771Z,78.70
2018-12-10T11:17:05.999Z,78.70
2018-12-10T11:18:10.129Z,78.30
2018-12-10T11:19:05.034Z,78.30
2018-12-10T11:20:05.234Z,78.40
2018-12-10T11:21:05.495Z,78.20
2018-12-10T11:22:05.550Z,78.20
2018-12-10T11:23:08.234Z,78.40
2018-12-10T11:24:07.791Z,78.20
2018-12-10T11:25:08.327Z,77.80
2018-12-10T11:26:07.840Z,77.30
2018-12-10T11:27:08.403Z,77.20
2018-12-10T11:28:05.584Z,77.20
2018-12-10T11:29:07.755Z,76.90
2018-12-10T11:30:05.795Z,76.90
2018-12-10T11:31:05.954Z,77.00
2018-12-10T11:32:05.031Z,76.90
2018-12-10T11:33:05.551Z,77.10
2018-12-10T11:34:08.174Z,77.20
2018-12-10T11:35:05.121Z,77.10
2018-12-10T11:36:07.881Z,77.10
2018-12-10T11:37:08.382Z,76.80
2018-12-10T11:38:05.374Z,76.80
2018-12-10T11:39:05.469Z,76.70
2018-12-10T11:40:05.620Z,76.60
2018-12-10T11:41:13.501Z,76.80
2018-12-10T11:42:05.630Z,76.80
2018-12-10T11:43:08.456Z,76.80
2018-12-10T11:44:07.967Z,76.70
2018-12-10T11:45:08.594Z,76.70
2018-12-10T11:46:08.120Z,76.50
2018-12-10T11:47:13.451Z,76.50
2018-12-10T11:48:08.218Z,76.30
2018-12-10T11:49:05.251Z,76.30
2018-12-10T11:50:07.992Z,76.10
2018-12-10T11:51:05.080Z,76.00
2018-12-10T11:52:07.715Z,76.20
2018-12-10T11:53:08.224Z,75.60
2018-12-10T11:54:07.702Z,75.10
2018-12-10T11:55:05.780Z,75.10
2018-12-10T11:56:08.483Z,75.10
2018-12-10T11:57:05.392Z,75.10
2018-12-10T11:58:10.539Z,74.60
2018-12-10T11:59:05.702Z,74.60
2018-12-10T12:00:08.291Z,74.60
2018-12-10T12:01:05.378Z,74.60
2018-12-10T12:02:05.473Z,74.60
2018-12-10T12:03:08.097Z,74.70
2018-12-10T12:04:05.247Z,74.70
2018-12-10T12:05:07.992Z,74.50
2018-12-10T12:06:06.123Z,74.60
2018-12-10T12:07:05.237Z,74.30
2018-12-10T12:08:07.851Z,74.30
2018-12-10T12:09:05.843Z,74.30
2018-12-10T12:10:05.970Z,74.50
2018-12-10T12:11:07.671Z,74.90
2018-12-10T12:12:05.624Z,74.90
2018-12-10T12:13:05.770Z,74.90
2018-12-10T12:14:05.924Z,75.00
2018-12-10T12:15:05.110Z,75.00
2018-12-10T12:16:05.285Z,75.00
2018-12-10T12:17:08.151Z,74.60
2018-12-10T12:18:05.309Z,74.60
2018-12-10T12:19:11.841Z,74.50
2018-12-10T12:20:05.962Z,74.50
2018-12-10T12:21:05.062Z,74.40
2018-12-10T12:22:07.779Z,74.50
2018-12-10T12:23:08.300Z,74.30
2018-12-10T12:24:05.279Z,74.30
2018-12-10T12:25:05.514Z,74.20
2018-12-10T12:26:05.763Z,73.90
2018-12-10T12:27:05.945Z,73.80
2018-12-10T12:28:07.621Z,73.60
2018-12-10T12:29:08.110Z,73.40
2018-12-10T12:30:05.100Z,73.40
2018-12-10T12:31:07.716Z,73.40
2018-12-10T12:32:05.815Z,73.40
2018-12-10T12:33:08.462Z,73.80
2018-12-10T12:34:05.513Z,73.80
2018-12-10T12:35:05.633Z,74.10
2018-12-10T12:36:05.915Z,74.30
2018-12-10T12:37:07.604Z,74.40
2018-12-10T12:38:05.599Z,74.40
2018-12-10T12:39:07.708Z,74.60
2018-12-10T12:40:08.181Z,74.90
2018-12-10T12:41:05.220Z,74.90
2018-12-10T12:42:10.425Z,75.20
2018-12-10T12:43:16.414Z,75.10
2018-12-10T12:44:08.116Z,75.00
2018-12-10T12:45:05.078Z,75.10
2018-12-10T12:46:05.206Z,74.60
2018-12-10T12:47:05.408Z,74.70
2018-12-10T12:48:05.585Z,74.30
2018-12-10T12:49:05.678Z,73.90
2018-12-10T12:50:08.429Z,74.30
2018-12-10T12:51:07.976Z,74.20
2018-12-10T12:52:05.932Z,74.20